createdAt,value
2019-01-26T00:01:42.205Z,12.30
2019-01-26T00:04:10.049Z,11.30
2019-01-26T00:06:37.736Z,11.33
2019-01-26T00:09:08.441Z,11.47
2019-01-26T00:11:36.141Z,11.80
2019-01-26T00:14:03.958Z,11.97
2019-01-26T00:16:31.661Z,11.57
2019-01-26T00:18:59.349Z,13.53
2019-01-26T00:21:27.082Z,13.63
2019-01-26T00:23:54.806Z,11.87
2019-01-26T00:26:22.517Z,11.80
2019-01-26T00:28:50.276Z,12.40
2019-01-26T00:31:18.349Z,10.97
2019-01-26T00:33:46.325Z,11.63
2019-01-26T00:36:14.194Z,13.70
2019-01-26T00:38:41.931Z,13.73
2019-01-26T00:41:09.629Z,13.70
2019-01-26T00:43:37.342Z,13.80
2019-01-26T00:46:05.127Z,11.50
2019-01-26T00:48:32.856Z,12.13
2019-01-26T00:51:00.589Z,11.77
2019-01-26T00:53:28.385Z,13.07
2019-01-26T00:55:56.126Z,11.87
2019-01-26T00:58:23.996Z,11.97
2019-01-26T01:00:51.740Z,11.40
2019-01-26T01:03:19.561Z,12.10
2019-01-26T01:05:47.362Z,12.13
2019-01-26T01:08:15.049Z,13.10
2019-01-26T01:10:42.781Z,12.10
2019-01-26T01:13:10.510Z,12.23
2019-01-26T01:15:38.232Z,12.20
2019-01-26T01:18:06.042Z,11.43
2019-01-26T01:20:33.965Z,12.10
2019-01-26T01:23:01.627Z,12.73
2019-01-26T01:25:29.414Z,11.93
2019-01-26T01:27:57.145Z,11.57
2019-01-26T01:30:24.881Z,10.80
2019-01-26T01:32:52.707Z,12.77
2019-01-26T01:35:20.413Z,13.23
2019-01-26T01:37:48.227Z,12.97
2019-01-26T01:40:15.905Z,12.47
2019-01-26T01:42:43.592Z,12.40
2019-01-26T01:45:13.838Z,13.03
2019-01-26T01:47:41.604Z,13.10
2019-01-26T01:50:09.385Z,12.97
2019-01-26T01:52:37.135Z,12.83
2019-01-26T01:55:05.429Z,12.47
2019-01-26T01:57:33.118Z,12.47
2019-01-26T02:00:00.882Z,13.63
2019-01-26T02:02:28.805Z,13.20
2019-01-26T02:04:56.556Z,13.87
2019-01-26T02:07:24.261Z,12.53
2019-01-26T02:09:51.953Z,13.43
2019-01-26T02:12:19.662Z,11.70
2019-01-26T02:14:47.577Z,11.90
2019-01-26T02:17:15.273Z,13.90
2019-01-26T02:19:42.957Z,13.43
2019-01-26T02:22:10.688Z,13.40
2019-01-26T02:24:38.404Z,12.20
2019-01-26T02:27:06.093Z,12.60
2019-01-26T02:29:33.870Z,11.87
2019-01-26T02:32:01.661Z,13.10
2019-01-26T02:34:29.361Z,12.37
2019-01-26T02:36:57.289Z,12.93
2019-01-26T02:39:25.141Z,12.97
2019-01-26T02:41:52.877Z,12.77
2019-01-26T02:44:20.574Z,12.43
2019-01-26T02:46:48.289Z,12.43
2019-01-26T02:49:16.000Z,12.10
2019-01-26T02:51:43.885Z,13.27
2019-01-26T02:54:11.606Z,12.47
2019-01-26T02:56:39.426Z,11.93
2019-01-26T02:59:07.421Z,12.93
2019-01-26T03:01:35.294Z,12.93
2019-01-26T03:04:03.367Z,12.40
2019-01-26T03:06:31.241Z,12.30
2019-01-26T03:08:59.300Z,12.53
2019-01-26T03:11:27.025Z,12.33
2019-01-26T03:13:54.985Z,13.47
2019-01-26T03:16:22.931Z,12.43
2019-01-26T03:18:50.626Z,13.33
2019-01-26T03:21:18.402Z,13.60
2019-01-26T03:23:46.205Z,12.07
2019-01-26T03:26:13.922Z,12.67
2019-01-26T03:28:41.645Z,12.73
2019-01-26T03:31:09.538Z,13.20
2019-01-26T03:33:37.264Z,11.93
2019-01-26T03:36:04.953Z,13.20
2019-01-26T03:38:32.665Z,11.97
2019-01-26T03:41:00.363Z,12.73
2019-01-26T03:43:28.177Z,14.57
2019-01-26T03:45:55.915Z,19.00
2019-01-26T03:48:23.608Z,13.97
2019-01-26T03:50:51.331Z,12.93
2019-01-26T03:53:19.031Z,13.20
2019-01-26T03:55:46.748Z,12.67
2019-01-26T03:58:14.445Z,13.07
2019-01-26T04:00:42.202Z,12.03
2019-01-26T04:03:09.897Z,12.70
2019-01-26T04:05:37.676Z,13.40
2019-01-26T04:08:05.389Z,12.50
2019-01-26T04:10:33.113Z,12.37
2019-01-26T04:13:00.813Z,13.00
2019-01-26T04:15:28.526Z,11.63
2019-01-26T04:17:56.213Z,12.43
2019-01-26T04:20:23.925Z,12.07
2019-01-26T04:22:51.838Z,12.57
2019-01-26T04:25:19.541Z,12.33
2019-01-26T04:27:47.282Z,11.80
2019-01-26T04:30:19.210Z,12.63
2019-01-26T04:32:46.931Z,12.23
2019-01-26T04:35:14.665Z,12.60
2019-01-26T04:37:42.356Z,13.10
2019-01-26T04:40:12.149Z,13.03
2019-01-26T04:42:39.889Z,13.40
2019-01-26T04:45:10.477Z,13.40
2019-01-26T04:47:38.194Z,13.33
2019-01-26T04:50:06.941Z,13.87
2019-01-26T04:52:34.665Z,13.20
2019-01-26T04:55:02.376Z,14.27
2019-01-26T04:57:30.094Z,13.57
2019-01-26T04:59:57.773Z,15.30
2019-01-26T05:02:25.509Z,15.47
2019-01-26T05:04:53.196Z,14.67
2019-01-26T05:07:20.900Z,16.00
2019-01-26T05:09:48.618Z,18.73
2019-01-26T05:12:16.337Z,17.97
2019-01-26T05:14:44.049Z,17.77
2019-01-26T05:17:11.749Z,17.50
2019-01-26T05:19:39.463Z,16.13
2019-01-26T05:22:07.141Z,18.13
2019-01-26T05:24:34.848Z,16.60
2019-01-26T05:27:02.598Z,15.43
2019-01-26T05:29:30.301Z,15.10
2019-01-26T05:31:58.038Z,15.17
2019-01-26T05:34:25.736Z,17.23
2019-01-26T05:36:53.441Z,14.90
2019-01-26T05:39:21.164Z,17.97
2019-01-26T05:41:48.901Z,18.23
2019-01-26T05:44:16.697Z,19.17
2019-01-26T05:49:23.494Z,19.90
2019-01-26T05:51:51.205Z,17.53
2019-01-26T05:54:19.092Z,17.30
2019-01-26T05:56:46.733Z,16.13
2019-01-26T05:59:14.457Z,16.27
2019-01-26T06:01:42.173Z,16.20
2019-01-26T06:04:10.106Z,16.53
2019-01-26T06:06:37.820Z,16.50
2019-01-26T06:09:07.726Z,15.07
2019-01-26T06:11:35.452Z,16.83
2019-01-26T06:14:03.157Z,14.03
2019-01-26T06:16:30.901Z,15.03
2019-01-26T06:18:58.599Z,15.10
2019-01-26T06:21:26.303Z,16.07
2019-01-26T06:23:54.023Z,14.97
2019-01-26T06:26:41.117Z,14.97
2019-01-26T06:29:08.833Z,16.43
2019-01-26T06:31:36.766Z,19.07
2019-01-26T06:34:04.464Z,20.73
2019-01-26T06:36:32.419Z,16.37
2019-01-26T06:39:00.118Z,16.80
2019-01-26T06:41:27.953Z,15.70
2019-01-26T06:43:56.012Z,18.17
2019-01-26T06:46:23.732Z,20.60
2019-01-26T06:48:55.556Z,20.13
2019-01-26T06:51:23.333Z,19.60
2019-01-26T06:53:51.950Z,20.63
2019-01-26T06:56:19.653Z,17.10
2019-01-26T06:58:47.425Z,17.00
2019-01-26T07:01:15.105Z,16.67
2019-01-26T07:03:42.829Z,16.70
2019-01-26T07:06:20.128Z,15.77
2019-01-26T07:08:47.852Z,15.73
2019-01-26T07:11:15.585Z,15.17
2019-01-26T07:13:43.261Z,15.47
2019-01-26T07:16:11.385Z,18.67
2019-01-26T07:18:39.069Z,19.93
2019-01-26T07:21:06.798Z,21.33
2019-01-26T07:23:34.509Z,19.07
2019-01-26T07:26:02.213Z,20.10
2019-01-26T07:28:29.930Z,19.47
2019-01-26T07:30:57.738Z,19.47
2019-01-26T07:33:25.453Z,20.87
2019-01-26T07:35:53.255Z,22.27
2019-01-26T07:38:20.958Z,23.93
2019-01-26T07:40:48.734Z,23.83
2019-01-26T07:43:16.823Z,24.53
2019-01-26T07:45:44.728Z,24.43
2019-01-26T07:48:16.688Z,23.93
2019-01-26T07:50:41.897Z,23.03
2019-01-26T07:53:09.592Z,24.10
2019-01-26T07:55:37.341Z,23.63
2019-01-26T07:58:05.044Z,24.60
2019-01-26T08:00:32.761Z,24.07
2019-01-26T08:03:00.496Z,23.70
2019-01-26T08:05:28.209Z,23.93
2019-01-26T08:07:56.873Z,22.97
2019-01-26T08:10:24.677Z,21.60
2019-01-26T08:12:52.640Z,22.93
2019-01-26T08:15:22.994Z,22.83
2019-01-26T08:17:50.705Z,24.03
2019-01-26T08:20:18.927Z,23.10
2019-01-26T08:22:46.632Z,23.80
2019-01-26T08:25:14.643Z,22.47
2019-01-26T08:27:42.364Z,24.63
2019-01-26T08:30:13.281Z,25.37
2019-01-26T08:32:40.977Z,23.37
2019-01-26T08:35:08.935Z,25.80
2019-01-26T08:37:36.637Z,25.17
2019-01-26T08:40:04.521Z,25.53
2019-01-26T08:42:32.249Z,25.07
2019-01-26T08:45:00.012Z,25.53
2019-01-26T08:47:27.741Z,24.70
2019-01-26T08:49:55.493Z,23.73
2019-01-26T08:52:23.310Z,21.23
2019-01-26T08:54:50.976Z,21.63
2019-01-26T08:57:18.720Z,23.80
2019-01-26T08:59:46.457Z,30.45
2019-01-26T09:02:27.549Z,26.47
2019-01-26T09:04:56.374Z,24.77
2019-01-26T09:07:24.601Z,22.60
2019-01-26T09:09:52.337Z,22.37
2019-01-26T09:12:20.058Z,21.53
2019-01-26T09:14:47.776Z,23.30
2019-01-26T09:17:15.489Z,23.50
2019-01-26T09:19:43.195Z,25.40
2019-01-26T09:22:11.059Z,24.20
2019-01-26T09:24:38.763Z,25.33
2019-01-26T09:27:06.566Z,27.10
2019-01-26T09:29:34.268Z,29.20
2019-01-26T09:32:01.957Z,27.40
2019-01-26T09:34:29.717Z,27.57
2019-01-26T09:36:57.440Z,26.30
2019-01-26T09:39:25.693Z,26.43
2019-01-26T09:41:53.468Z,26.93
2019-01-26T09:44:21.180Z,27.83
2019-01-26T09:46:49.064Z,26.43
2019-01-26T09:49:16.801Z,28.83
2019-01-26T09:51:44.563Z,24.73
2019-01-26T09:54:12.273Z,34.25
2019-01-26T09:56:39.983Z,27.90
2019-01-26T09:59:07.700Z,28.73
2019-01-26T10:01:35.393Z,26.43
2019-01-26T10:04:03.215Z,23.23
2019-01-26T10:06:30.933Z,25.20
2019-01-26T10:08:58.638Z,23.20
2019-01-26T10:11:29.347Z,26.50
2019-01-26T10:13:58.502Z,25.50
2019-01-26T10:16:26.302Z,27.33
2019-01-26T10:18:54.210Z,25.97
2019-01-26T10:21:21.906Z,25.60
2019-01-26T10:23:49.621Z,26.23
2019-01-26T10:26:17.332Z,24.53
2019-01-26T10:28:45.052Z,23.97
2019-01-26T10:31:12.765Z,23.93
2019-01-26T10:33:40.464Z,24.33
2019-01-26T10:36:20.845Z,23.97
2019-01-26T10:38:52.549Z,25.77
2019-01-26T10:41:39.101Z,24.10
2019-01-26T10:44:07.521Z,25.93
2019-01-26T10:46:35.237Z,23.80
2019-01-26T10:49:03.005Z,23.03
2019-01-26T10:51:30.725Z,23.87
2019-01-26T10:53:58.516Z,24.37
2019-01-26T10:56:26.220Z,22.93
2019-01-26T10:58:53.937Z,21.93
2019-01-26T11:01:21.667Z,23.67
2019-01-26T11:04:08.793Z,23.93
2019-01-26T11:06:36.490Z,22.43
2019-01-26T11:09:07.709Z,21.80
2019-01-26T11:11:35.433Z,21.73
2019-01-26T11:14:03.141Z,22.80
2019-01-26T11:16:31.278Z,29.45
2019-01-26T11:18:59.033Z,24.50
2019-01-26T11:21:26.742Z,23.50
2019-01-26T11:23:54.452Z,23.57
2019-01-26T11:26:22.165Z,23.40
2019-01-26T11:28:49.874Z,23.20
2019-01-26T11:31:17.681Z,23.83
2019-01-26T11:33:45.405Z,25.30
2019-01-26T11:36:13.101Z,25.03
2019-01-26T11:38:40.813Z,26.17
2019-01-26T11:41:08.521Z,25.43
2019-01-26T11:43:36.260Z,28.43
2019-01-26T11:46:16.613Z,26.30
2019-01-26T11:48:46.469Z,33.78
2019-01-26T11:51:37.045Z,28.60
2019-01-26T11:54:04.768Z,27.20
2019-01-26T11:56:40.021Z,28.43
2019-01-26T11:59:07.871Z,28.40
2019-01-26T12:01:53.702Z,26.13
2019-01-26T12:04:53.155Z,25.83
2019-01-26T12:07:24.191Z,24.40
2019-01-26T12:09:51.905Z,26.93
2019-01-26T12:12:19.604Z,28.53
2019-01-26T12:14:47.414Z,32.47
2019-01-26T12:17:15.175Z,30.57
2019-01-26T12:19:42.861Z,29.40
2019-01-26T12:22:10.592Z,25.50
2019-01-26T12:24:38.365Z,22.63
2019-01-26T12:27:06.082Z,26.03
2019-01-26T12:29:33.841Z,25.40
2019-01-26T12:32:01.610Z,24.47
2019-01-26T12:34:29.312Z,22.73
2019-01-26T12:36:57.001Z,20.40
2019-01-26T12:39:24.711Z,19.00
2019-01-26T12:41:52.422Z,17.00
2019-01-26T12:44:20.109Z,18.70
2019-01-26T12:46:47.833Z,17.80
2019-01-26T12:49:15.586Z,18.40
2019-01-26T12:51:46.254Z,20.17
2019-01-26T12:54:14.001Z,21.03
2019-01-26T12:56:41.713Z,20.80
2019-01-26T12:59:09.433Z,19.27
2019-01-26T13:01:37.121Z,21.53
2019-01-26T13:04:05.177Z,18.77
2019-01-26T13:06:32.897Z,17.47
2019-01-26T13:09:00.745Z,15.70
2019-01-26T13:11:29.271Z,19.00
2019-01-26T13:13:57.010Z,23.80
2019-01-26T13:16:25.074Z,27.13
2019-01-26T13:18:52.817Z,25.23
2019-01-26T13:21:20.717Z,21.10
2019-01-26T13:23:48.453Z,20.10
2019-01-26T13:26:16.356Z,18.50
2019-01-26T13:28:44.073Z,17.03
2019-01-26T13:31:11.769Z,17.77
2019-01-26T13:33:39.489Z,19.07
2019-01-26T13:36:07.516Z,19.63
2019-01-26T13:38:35.243Z,15.80
2019-01-26T13:41:02.922Z,17.03
2019-01-26T13:43:30.637Z,18.90
2019-01-26T13:45:58.341Z,18.03
2019-01-26T13:48:26.193Z,14.53
2019-01-26T13:50:53.887Z,16.17
2019-01-26T13:53:21.793Z,16.90
2019-01-26T13:55:49.513Z,14.20
2019-01-26T13:58:17.568Z,14.00
2019-01-26T14:00:45.274Z,16.07
2019-01-26T14:03:12.976Z,17.17
2019-01-26T14:05:40.707Z,13.37
2019-01-26T14:08:08.725Z,12.20
2019-01-26T14:10:36.445Z,11.47
2019-01-26T14:13:04.533Z,11.23
2019-01-26T14:15:32.241Z,12.03
2019-01-26T14:17:59.954Z,10.63
2019-01-26T14:20:27.690Z,9.63
2019-01-26T14:22:55.384Z,9.33
2019-01-26T14:25:25.096Z,8.27
2019-01-26T14:27:52.841Z,8.30
2019-01-26T14:30:26.413Z,10.70
2019-01-26T14:32:54.145Z,9.77
2019-01-26T14:35:22.566Z,11.23
2019-01-26T14:37:50.685Z,11.60
2019-01-26T14:40:18.428Z,11.07
2019-01-26T14:42:46.153Z,11.67
2019-01-26T14:45:13.969Z,10.97
2019-01-26T14:47:41.846Z,11.97
2019-01-26T14:50:10.596Z,12.27
2019-01-26T14:52:38.301Z,11.40
2019-01-26T14:55:08.104Z,10.50
2019-01-26T14:57:35.834Z,11.50
2019-01-26T15:00:04.939Z,11.27
2019-01-26T15:02:33.069Z,10.87
2019-01-26T15:05:01.065Z,10.43
2019-01-26T15:07:28.916Z,11.83
2019-01-26T15:09:56.629Z,9.80
2019-01-26T15:12:29.980Z,10.13
2019-01-26T15:15:02.919Z,10.90
2019-01-26T15:17:38.183Z,10.23
2019-01-26T15:20:08.837Z,11.90
2019-01-26T15:22:36.920Z,13.57
2019-01-26T15:25:05.426Z,12.83
2019-01-26T15:27:33.132Z,14.27
2019-01-26T15:30:00.829Z,12.83
2019-01-26T15:32:28.524Z,11.23
2019-01-26T15:34:56.216Z,12.43
2019-01-26T15:37:23.936Z,13.43
2019-01-26T15:39:51.644Z,12.77
2019-01-26T15:42:19.352Z,11.77
2019-01-26T15:44:47.068Z,10.60
2019-01-26T15:47:14.824Z,11.03
2019-01-26T15:49:42.569Z,11.20
2019-01-26T15:52:10.333Z,12.13
2019-01-26T15:54:38.054Z,10.07
2019-01-26T15:57:05.757Z,10.57
2019-01-26T15:59:33.513Z,9.87
2019-01-26T16:02:01.214Z,12.37
2019-01-26T16:04:29.029Z,13.53
2019-01-26T16:06:56.808Z,15.47
2019-01-26T16:09:24.509Z,18.37
2019-01-26T16:11:52.225Z,16.43
2019-01-26T16:14:19.917Z,16.60
2019-01-26T16:16:47.609Z,16.83
2019-01-26T16:19:15.336Z,14.50
2019-01-26T16:21:43.030Z,13.57
2019-01-26T16:24:10.769Z,11.60
2019-01-26T16:26:38.480Z,13.30
2019-01-26T16:29:06.506Z,12.63
2019-01-26T16:31:34.312Z,13.20
2019-01-26T16:34:02.143Z,13.63
2019-01-26T16:36:29.899Z,14.47
2019-01-26T16:38:57.645Z,15.73
2019-01-26T16:41:25.470Z,15.57
2019-01-26T16:43:53.210Z,15.80
2019-01-26T16:46:20.933Z,16.97
2019-01-26T16:48:48.749Z,16.67
2019-01-26T16:51:16.522Z,15.70
2019-01-26T16:53:44.346Z,14.83
2019-01-26T16:56:12.544Z,17.03
2019-01-26T16:58:40.341Z,17.03
2019-01-26T17:01:08.353Z,18.13
2019-01-26T17:03:36.077Z,20.20
2019-01-26T17:06:04.064Z,18.60
2019-01-26T17:08:31.785Z,17.40
2019-01-26T17:10:59.540Z,17.07
2019-01-26T17:13:27.605Z,17.30
2019-01-26T17:15:55.309Z,22.20
2019-01-26T17:18:23.481Z,20.67
2019-01-26T17:20:51.615Z,26.40
2019-01-26T17:23:19.453Z,24.63
2019-01-26T17:25:47.165Z,27.10
2019-01-26T17:28:14.917Z,24.37
2019-01-26T17:30:42.989Z,23.20
2019-01-26T17:33:10.702Z,21.73
2019-01-26T17:35:38.393Z,23.07
2019-01-26T17:38:06.113Z,22.10
2019-01-26T17:40:33.845Z,22.30
2019-01-26T17:43:01.560Z,27.03
2019-01-26T17:45:29.260Z,23.43
2019-01-26T17:47:57.205Z,22.27
2019-01-26T17:50:25.023Z,23.67
2019-01-26T17:52:52.948Z,24.77
2019-01-26T17:55:20.829Z,26.20
2019-01-26T17:57:48.554Z,26.33
2019-01-26T18:00:26.165Z,29.33
2019-01-26T18:02:54.265Z,40.13
2019-01-26T18:05:21.979Z,29.30
2019-01-26T18:07:49.877Z,28.83
2019-01-26T18:10:18.597Z,27.50
2019-01-26T18:12:46.468Z,28.37
2019-01-26T18:15:14.282Z,61.53
2019-01-26T18:17:45.304Z,32.43
2019-01-26T18:20:59.281Z,38.37
2019-01-26T18:23:31.268Z,37.83
2019-01-26T18:26:02.090Z,36.73
2019-01-26T18:28:34.757Z,40.53
2019-01-26T18:31:03.757Z,35.23
2019-01-26T18:33:36.581Z,35.70
2019-01-26T18:36:05.125Z,42.33
2019-01-26T18:38:32.825Z,41.00
2019-01-26T18:41:00.533Z,37.67
2019-01-26T18:43:28.237Z,35.90
2019-01-26T18:45:55.935Z,31.00
2019-01-26T18:48:23.676Z,24.30
2019-01-26T18:50:56.062Z,24.70
2019-01-26T18:53:20.976Z,42.33
2019-01-26T18:55:48.661Z,40.30
2019-01-26T18:58:16.357Z,38.90
2019-01-26T19:00:46.886Z,48.60
2019-01-26T19:03:41.157Z,42.13
2019-01-26T19:06:09.137Z,42.00
2019-01-26T19:08:36.892Z,42.97
2019-01-26T19:11:04.590Z,41.33
2019-01-26T19:13:32.296Z,35.87
2019-01-26T19:16:00.218Z,36.47
2019-01-26T19:18:27.908Z,39.97
2019-01-26T19:20:55.646Z,40.37
2019-01-26T19:23:23.596Z,40.03
2019-01-26T19:25:51.297Z,38.90
2019-01-26T19:28:19.013Z,41.47
2019-01-26T19:30:46.717Z,48.27
2019-01-26T19:33:14.781Z,49.17
2019-01-26T19:35:42.464Z,49.33
2019-01-26T19:38:10.281Z,48.43
2019-01-26T19:40:38.017Z,51.40
2019-01-26T19:43:06.037Z,51.07
2019-01-26T19:45:33.760Z,55.60
2019-01-26T19:48:01.460Z,56.20
2019-01-26T19:50:29.167Z,56.43
2019-01-26T19:52:56.852Z,56.60
2019-01-26T19:55:24.592Z,54.67
2019-01-26T19:57:52.273Z,52.13
2019-01-26T20:00:20.005Z,50.50
2019-01-26T20:02:47.719Z,56.87
2019-01-26T20:05:16.895Z,59.83
2019-01-26T20:07:44.600Z,64.47
2019-01-26T20:10:12.558Z,67.37
2019-01-26T20:12:40.244Z,67.17
2019-01-26T20:15:12.901Z,67.13
2019-01-26T20:17:40.609Z,62.50
2019-01-26T20:20:10.833Z,52.07
2019-01-26T20:22:38.553Z,50.43
2019-01-26T20:25:06.486Z,47.57
2019-01-26T20:27:34.173Z,48.30
2019-01-26T20:30:01.894Z,48.27
2019-01-26T20:32:29.612Z,46.40
2019-01-26T20:34:57.385Z,42.20
2019-01-26T20:37:25.089Z,42.10
2019-01-26T20:39:52.794Z,42.17
2019-01-26T20:42:20.501Z,43.00
2019-01-26T20:44:48.193Z,45.67
2019-01-26T20:47:15.897Z,44.03
2019-01-26T20:49:43.629Z,44.13
2019-01-26T20:52:11.324Z,41.90
2019-01-26T20:54:39.038Z,42.57
2019-01-26T20:57:06.734Z,46.53
2019-01-26T20:59:34.470Z,48.40
2019-01-26T21:02:02.173Z,53.67
2019-01-26T21:04:29.888Z,48.30
2019-01-26T21:06:58.064Z,56.30
2019-01-26T21:09:25.821Z,52.23
2019-01-26T21:11:53.541Z,48.53
2019-01-26T21:14:21.238Z,57.67
2019-01-26T21:16:48.965Z,69.70
2019-01-26T21:19:16.573Z,65.67
2019-01-26T21:21:44.292Z,67.17
2019-01-26T21:24:12.021Z,66.60
2019-01-26T21:26:39.731Z,70.00
2019-01-26T21:29:07.462Z,62.20
2019-01-26T21:31:35.163Z,56.53
2019-01-26T21:34:02.961Z,59.63
2019-01-26T21:36:30.860Z,48.80
2019-01-26T21:39:01.246Z,48.63
2019-01-26T21:41:29.192Z,43.30
2019-01-26T21:43:57.120Z,34.63
2019-01-26T21:46:25.111Z,36.60
2019-01-26T21:48:53.060Z,38.87
2019-01-26T21:51:22.126Z,35.83
2019-01-26T21:53:49.875Z,36.27
2019-01-26T21:56:17.625Z,38.73
2019-01-26T21:58:45.372Z,36.63
2019-01-26T22:01:13.080Z,37.70
2019-01-26T22:03:40.857Z,38.30
2019-01-26T22:06:08.573Z,38.63
2019-01-26T22:08:36.325Z,36.10
2019-01-26T22:11:04.113Z,36.73
2019-01-26T22:13:31.884Z,35.23
2019-01-26T22:15:59.587Z,35.90
2019-01-26T22:18:27.338Z,36.47
2019-01-26T22:20:55.117Z,37.63
2019-01-26T22:23:22.936Z,42.20
2019-01-26T22:25:51.790Z,42.80
2019-01-26T22:28:19.541Z,43.10
2019-01-26T22:30:47.252Z,46.70
2019-01-26T22:33:14.993Z,47.37
2019-01-26T22:35:42.771Z,46.60
2019-01-26T22:38:10.521Z,44.87
2019-01-26T22:40:38.232Z,36.83
2019-01-26T22:43:05.931Z,29.30
2019-01-26T22:45:33.833Z,28.03
2019-01-26T22:48:01.526Z,26.80
2019-01-26T22:50:29.457Z,28.90
2019-01-26T22:52:57.201Z,30.93
2019-01-26T22:55:25.077Z,30.63
2019-01-26T22:57:52.886Z,34.77
2019-01-26T23:00:47.297Z,34.37
2019-01-26T23:03:15.263Z,35.63
2019-01-26T23:06:13.768Z,35.57
2019-01-26T23:08:41.519Z,34.70
2019-01-26T23:12:03.534Z,36.60
2019-01-26T23:15:08.689Z,32.40
2019-01-26T23:18:13.497Z,32.93
2019-01-26T23:21:14.157Z,32.80
2019-01-26T23:24:28.237Z,32.50
2019-01-26T23:27:46.825Z,29.77
2019-01-26T23:30:43.614Z,23.97
2019-01-26T23:33:11.345Z,26.37
2019-01-26T23:35:39.317Z,28.60
2019-01-26T23:38:07.042Z,28.60
2019-01-26T23:40:34.764Z,31.90
2019-01-26T23:43:02.501Z,32.53
2019-01-26T23:45:30.231Z,34.70
2019-01-26T23:47:57.980Z,33.63
2019-01-26T23:50:25.690Z,33.77
2019-01-26T23:52:53.417Z,33.73
2019-01-26T23:55:21.133Z,32.17
2019-01-26T23:57:48.922Z,31.83
